createdAt,value
2018-03-23T00:00:15.201Z,52.25
2018-03-23T00:02:44.413Z,104.32
2018-03-23T00:05:15.633Z,50.10
2018-03-23T00:07:43.469Z,81.12
2018-03-23T00:10:14.312Z,125.38
2018-03-23T00:15:36.387Z,103.40
2018-03-23T00:18:17.601Z,56.20
2018-03-23T00:20:45.110Z,49.65
2018-03-23T00:23:12.656Z,97.57
2018-03-23T00:25:43.200Z,50.58
2018-03-23T00:28:15.538Z,118.28
2018-03-23T00:30:45.300Z,58.28
2018-03-23T00:33:15.576Z,58.75
2018-03-23T00:35:47.893Z,65.75
2018-03-23T00:38:15.505Z,96.63
2018-03-23T00:40:46.146Z,57.58
2018-03-23T00:49:23.990Z,64.68
2018-03-23T00:54:51.126Z,108.80
2018-03-23T00:57:19.256Z,67.55
2018-03-23T00:59:51.167Z,45.00
2018-03-23T01:02:23.432Z,41.72
2018-03-23T01:04:55.376Z,62.25
2018-03-23T01:07:25.824Z,57.53
2018-03-23T01:09:56.890Z,50.55
2018-03-23T01:12:27.026Z,85.10
2018-03-23T01:14:54.810Z,93.03
2018-03-23T01:17:37.882Z,83.75
2018-03-23T01:20:09.744Z,76.72
2018-03-23T01:22:45.835Z,41.88
2018-03-23T01:25:15.069Z,64.95
2018-03-23T01:27:45.403Z,60.05
2018-03-23T01:30:14.565Z,48.70
2018-03-23T01:32:44.081Z,46.37
2018-03-23T01:35:14.471Z,49.63
2018-03-23T01:37:44.968Z,44.72
2018-03-23T01:40:16.156Z,40.90
2018-03-23T01:42:44.798Z,42.60
2018-03-23T01:45:14.945Z,34.95
2018-03-23T01:47:45.539Z,39.33
2018-03-23T01:50:14.512Z,37.85
2018-03-23T01:52:44.622Z,37.35
2018-03-23T01:55:12.141Z,37.15
2018-03-23T01:57:48.536Z,36.10
2018-03-23T02:00:16.278Z,35.30
2018-03-23T02:02:46.600Z,35.10
2018-03-23T02:05:14.849Z,35.78
2018-03-23T02:08:00.653Z,33.45
2018-03-23T02:10:43.445Z,32.97
2018-03-23T02:13:18.630Z,32.80
2018-03-23T02:21:32.059Z,32.20
2018-03-23T02:26:51.651Z,34.05
2018-03-23T02:32:13.746Z,33.88
2018-03-23T02:34:44.869Z,34.72
2018-03-23T02:37:14.450Z,37.20
2018-03-23T02:48:57.566Z,40.40
2018-03-23T02:51:28.484Z,43.33
2018-03-23T02:53:56.122Z,44.88
2018-03-23T02:56:30.978Z,51.40
2018-03-23T02:59:04.623Z,52.62
2018-03-23T03:01:34.097Z,63.90
2018-03-23T03:04:02.809Z,46.90
2018-03-23T03:06:30.493Z,71.53
2018-03-23T03:11:44.173Z,84.40
2018-03-23T03:17:10.462Z,53.70
2018-03-23T03:19:40.725Z,63.80
2018-03-23T03:22:12.777Z,77.87
2018-03-23T03:24:45.181Z,62.78
2018-03-23T03:27:15.295Z,49.42
2018-03-23T03:29:45.286Z,158.18
2018-03-23T03:32:15.593Z,87.85
2018-03-23T03:34:46.459Z,50.20
2018-03-23T03:37:15.504Z,54.05
2018-03-23T03:39:43.067Z,85.12
2018-03-23T03:42:13.820Z,57.42
2018-03-23T03:44:43.368Z,236.40
2018-03-23T03:47:13.569Z,70.82
2018-03-23T03:49:43.035Z,136.07
2018-03-23T03:52:13.491Z,91.75
2018-03-23T03:54:47.578Z,95.95
2018-03-23T03:57:15.125Z,153.40
2018-03-23T03:59:59.369Z,153.18
2018-03-23T04:02:26.997Z,109.20
2018-03-23T04:05:05.707Z,59.57
2018-03-23T04:07:38.996Z,106.10
2018-03-23T04:10:09.815Z,83.70
2018-03-23T04:12:49.265Z,70.62
2018-03-23T04:15:17.775Z,56.85
2018-03-23T04:17:46.139Z,49.30
2018-03-23T04:20:14.719Z,50.80
2018-03-23T04:22:52.209Z,47.33
2018-03-23T04:25:20.816Z,46.70
2018-03-23T04:27:48.446Z,46.28
2018-03-23T04:36:14.527Z,39.70
2018-03-23T04:38:44.497Z,40.50
2018-03-23T04:41:12.072Z,39.13
2018-03-23T04:43:46.357Z,37.45
2018-03-23T04:46:14.009Z,37.17
2018-03-23T04:48:41.736Z,39.55
2018-03-23T04:51:09.274Z,40.00
2018-03-23T04:53:37.541Z,39.00
2018-03-23T04:56:05.170Z,37.17
2018-03-23T04:58:32.714Z,35.88
2018-03-23T05:01:01.053Z,37.90
2018-03-23T05:03:28.612Z,33.72
2018-03-23T05:06:15.021Z,33.20
2018-03-23T05:08:46.853Z,32.00
2018-03-23T05:11:16.262Z,31.20
2018-03-23T05:13:44.672Z,32.30
2018-03-23T05:16:17.436Z,34.13
2018-03-23T05:18:45.436Z,33.50
2018-03-23T05:24:15.567Z,38.58
2018-03-23T05:26:47.180Z,39.97
2018-03-23T05:29:17.291Z,38.95
2018-03-23T05:31:46.042Z,37.45
2018-03-23T05:34:16.398Z,34.95
2018-03-23T05:36:47.069Z,35.33
2018-03-23T05:39:17.386Z,35.20
2018-03-23T05:41:45.648Z,37.47
2018-03-23T05:44:15.665Z,37.83
2018-03-23T05:58:26.732Z,33.72
2018-03-23T06:01:06.840Z,31.23
2018-03-23T06:03:36.150Z,36.08
2018-03-23T06:06:20.283Z,38.08
2018-03-23T06:12:07.424Z,32.75
2018-03-23T06:14:37.549Z,33.83
2018-03-23T06:17:37.069Z,36.83
2018-03-23T06:20:09.022Z,30.52
2018-03-23T06:22:38.048Z,46.90
2018-03-23T06:25:07.717Z,39.35
2018-03-23T06:27:37.858Z,41.70
2018-03-23T06:30:12.784Z,48.75
2018-03-23T06:32:40.325Z,44.22
2018-03-23T06:35:07.849Z,45.72
2018-03-23T06:37:39.045Z,42.67
2018-03-23T06:40:08.117Z,43.13
2018-03-23T06:42:38.333Z,45.83
2018-03-23T06:45:07.729Z,47.50
2018-03-23T06:47:38.732Z,60.75
2018-03-23T06:52:49.249Z,49.90
2018-03-23T06:55:25.243Z,63.03
2018-03-23T07:22:22.191Z,48.38
2018-03-23T07:24:52.932Z,46.25
2018-03-23T07:27:23.406Z,51.33
2018-03-23T07:29:52.392Z,54.23
2018-03-23T07:32:19.895Z,53.78
2018-03-23T07:34:49.028Z,48.75
2018-03-23T07:37:17.784Z,45.80
2018-03-23T07:39:45.347Z,52.17
2018-03-23T07:42:15.658Z,48.40
2018-03-23T07:47:36.225Z,54.10
2018-03-23T07:50:03.766Z,49.72
2018-03-23T07:52:31.581Z,48.22
2018-03-23T07:54:59.872Z,48.50
2018-03-23T07:57:28.129Z,56.33
2018-03-23T07:59:55.629Z,50.42
2018-03-23T08:02:36.913Z,51.28
2018-03-23T08:05:08.207Z,56.23
2018-03-23T08:07:39.058Z,47.58
2018-03-23T08:10:07.325Z,48.95
2018-03-23T08:12:35.615Z,51.55
2018-03-23T08:15:03.913Z,53.03
2018-03-23T08:17:40.200Z,53.07
2018-03-23T08:20:07.697Z,56.65
2018-03-23T08:22:35.233Z,55.15
2018-03-23T08:25:08.957Z,49.92
2018-03-23T08:27:37.494Z,54.03
2018-03-23T08:30:08.886Z,56.25
2018-03-23T08:32:40.775Z,52.55
2018-03-23T08:35:09.041Z,40.60
2018-03-23T08:37:37.658Z,55.88
2018-03-23T08:40:09.000Z,53.92
2018-03-23T08:42:37.351Z,57.27
2018-03-23T08:45:08.520Z,47.00
2018-03-23T08:47:36.044Z,55.83
2018-03-23T08:50:10.039Z,64.05
2018-03-23T08:52:37.871Z,48.92
2018-03-23T08:55:05.867Z,49.20
2018-03-23T08:57:33.369Z,56.30
2018-03-23T09:00:01.648Z,57.37
2018-03-23T09:02:43.595Z,59.47
2018-03-23T09:08:04.375Z,61.83
2018-03-23T09:10:43.308Z,56.78
2018-03-23T09:13:11.928Z,47.60
2018-03-23T09:15:39.460Z,50.23
2018-03-23T09:18:07.709Z,44.13
2018-03-23T09:20:40.346Z,41.75
2018-03-23T09:23:07.878Z,42.75
2018-03-23T09:25:36.511Z,43.83
2018-03-23T09:28:06.669Z,44.63
2018-03-23T09:30:34.150Z,42.37
2018-03-23T09:33:01.640Z,42.65
2018-03-23T09:35:44.293Z,41.75
2018-03-23T09:38:11.773Z,47.22
2018-03-23T09:40:40.309Z,48.50
2018-03-23T09:43:07.822Z,50.22
2018-03-23T09:45:40.240Z,43.72
2018-03-23T09:48:18.609Z,44.60
2018-03-23T09:50:48.821Z,47.67
2018-03-23T09:53:16.965Z,46.83
2018-03-23T09:55:44.475Z,45.88
2018-03-23T09:58:11.969Z,44.53
2018-03-23T10:00:40.251Z,44.80
2018-03-23T10:03:08.543Z,39.55
2018-03-23T10:05:37.498Z,41.42
2018-03-23T10:08:08.447Z,43.30
2018-03-23T10:10:37.523Z,42.20
2018-03-23T10:13:11.563Z,38.97
2018-03-23T10:15:39.125Z,41.28
2018-03-23T10:18:07.698Z,42.83
2018-03-23T10:20:37.077Z,38.08
2018-03-23T10:23:04.924Z,36.45
2018-03-23T10:25:48.518Z,39.47
2018-03-23T10:28:16.829Z,40.05
2018-03-23T10:30:45.947Z,37.15
2018-03-23T10:33:13.474Z,39.25
2018-03-23T10:35:44.551Z,42.10
2018-03-23T10:38:14.602Z,40.03
2018-03-23T10:40:48.783Z,39.60
2018-03-23T10:43:18.237Z,39.83
2018-03-23T10:45:46.861Z,41.50
2018-03-23T10:48:34.496Z,40.00
2018-03-23T10:51:07.546Z,106.45
2018-03-23T10:53:36.040Z,144.35
2018-03-23T10:56:11.628Z,35.90
2018-03-23T10:58:40.371Z,35.78
2018-03-23T11:01:34.553Z,33.63
2018-03-23T11:04:08.424Z,39.13
2018-03-23T11:06:42.316Z,37.08
2018-03-23T11:09:11.617Z,36.83
2018-03-23T11:11:50.683Z,36.55
2018-03-23T11:14:37.604Z,39.35
2018-03-23T11:17:06.104Z,36.25
2018-03-23T11:25:09.758Z,40.45
2018-03-23T11:27:42.159Z,39.22
2018-03-23T11:30:09.705Z,41.15
2018-03-23T11:32:37.909Z,40.72
2018-03-23T11:35:08.838Z,38.08
2018-03-23T11:37:37.799Z,39.13
2018-03-23T11:40:07.678Z,42.25
2018-03-23T11:42:37.978Z,39.38
2018-03-23T11:47:56.595Z,39.08
2018-03-23T11:53:29.413Z,38.97
2018-03-23T11:56:07.116Z,42.42
2018-03-23T11:58:39.015Z,42.15
2018-03-23T12:07:07.095Z,41.50
2018-03-23T12:09:38.033Z,42.70
2018-03-23T12:12:07.894Z,40.92
2018-03-23T12:14:38.532Z,42.90
2018-03-23T12:17:07.412Z,37.13
2018-03-23T12:31:08.530Z,28.50
2018-03-23T12:33:39.669Z,27.48
2018-03-23T12:36:07.173Z,27.35
2018-03-23T12:38:39.373Z,26.52
2018-03-23T12:41:09.346Z,27.05
2018-03-23T12:43:40.237Z,27.13
2018-03-23T12:46:07.837Z,21.92
2018-03-23T12:48:37.152Z,24.25
2018-03-23T12:51:07.573Z,17.42
2018-03-23T12:53:38.421Z,16.52
2018-03-23T12:56:07.396Z,15.07
2018-03-23T12:58:38.569Z,16.83
2018-03-23T13:01:07.382Z,15.20
2018-03-23T13:03:39.274Z,15.40
2018-03-23T13:06:08.808Z,16.25
2018-03-23T13:08:36.371Z,15.98
2018-03-23T13:11:10.019Z,15.30
2018-03-23T13:13:37.672Z,14.10
2018-03-23T13:16:08.884Z,13.40
2018-03-23T13:18:37.420Z,16.27
2018-03-23T13:21:08.492Z,15.30
2018-03-23T13:26:37.491Z,12.70
2018-03-23T13:29:07.473Z,11.93
2018-03-23T13:31:37.828Z,12.23
2018-03-23T13:34:06.143Z,11.25
2018-03-23T13:36:37.475Z,12.18
2018-03-23T13:42:07.958Z,12.88
2018-03-23T13:44:37.229Z,13.85
2018-03-23T13:47:27.370Z,14.30
2018-03-23T13:50:00.934Z,13.73
2018-03-23T13:55:40.476Z,14.25
2018-03-23T13:58:07.986Z,14.80
2018-03-23T14:00:50.472Z,15.57
2018-03-23T14:03:32.392Z,14.68
2018-03-23T14:06:03.850Z,14.93
2018-03-23T14:08:36.672Z,13.60
2018-03-23T14:11:07.007Z,14.73
2018-03-23T14:14:01.537Z,14.77
2018-03-23T14:16:38.719Z,14.85
2018-03-23T14:19:07.997Z,15.98
2018-03-23T14:21:37.282Z,15.05
2018-03-23T14:27:09.897Z,15.68
2018-03-23T14:29:38.173Z,15.98
2018-03-23T14:32:07.498Z,16.73
2018-03-23T14:34:40.127Z,16.02
2018-03-23T14:37:08.394Z,17.48
2018-03-23T14:39:37.738Z,16.33
2018-03-23T14:42:12.217Z,17.03
2018-03-23T14:44:40.499Z,18.20
2018-03-23T14:50:07.650Z,18.08
2018-03-23T14:52:38.907Z,18.17
2018-03-23T14:55:08.524Z,18.52
2018-03-23T14:57:36.886Z,19.80
2018-03-23T15:00:06.849Z,19.00
2018-03-23T15:02:36.579Z,19.98
2018-03-23T15:05:05.973Z,98.82
2018-03-23T15:10:31.246Z,20.10
2018-03-23T15:13:03.843Z,20.63
2018-03-23T15:15:31.344Z,19.87
2018-03-23T15:17:58.859Z,19.33
2018-03-23T15:20:36.685Z,18.80
2018-03-23T15:23:05.773Z,19.45
2018-03-23T15:25:34.149Z,18.30
2018-03-23T15:28:01.649Z,16.77
2018-03-23T15:30:29.145Z,18.98
2018-03-23T15:32:56.701Z,16.98
2018-03-23T15:35:24.300Z,17.77
2018-03-23T15:37:52.616Z,17.17
2018-03-23T15:40:20.113Z,17.02
2018-03-23T15:43:17.366Z,17.52
2018-03-23T15:45:48.024Z,17.10
2018-03-23T15:48:15.548Z,17.20
2018-03-23T15:50:43.172Z,17.77
2018-03-23T15:53:10.678Z,17.45
2018-03-23T15:55:38.190Z,16.05
2018-03-23T15:58:05.680Z,16.58
2018-03-23T16:00:33.936Z,16.92
2018-03-23T16:03:04.634Z,16.70
2018-03-23T16:05:32.096Z,16.50
2018-03-23T16:07:59.566Z,15.83
2018-03-23T16:10:27.938Z,16.70
2018-03-23T16:12:55.458Z,15.95
2018-03-23T16:15:23.729Z,17.20
2018-03-23T16:17:51.238Z,16.85
2018-03-23T16:20:18.754Z,15.15
2018-03-23T16:22:46.241Z,14.75
2018-03-23T16:25:13.765Z,16.23
2018-03-23T16:27:41.253Z,17.12
2018-03-23T16:30:08.752Z,16.65
2018-03-23T16:32:36.254Z,15.70
2018-03-23T16:35:03.784Z,16.73
2018-03-23T16:37:31.266Z,19.58
2018-03-23T16:39:58.749Z,14.65
2018-03-23T16:42:27.007Z,15.98
2018-03-23T16:44:54.473Z,15.27
2018-03-23T16:47:21.969Z,15.73
2018-03-23T16:49:51.303Z,15.35
2018-03-23T16:52:19.608Z,15.83
2018-03-23T16:55:12.664Z,14.70
2018-03-23T16:57:40.181Z,15.60
2018-03-23T17:03:08.212Z,14.73
2018-03-23T17:05:35.706Z,15.00
2018-03-23T17:08:03.969Z,15.97
2018-03-23T17:10:31.538Z,16.95
2018-03-23T17:16:11.065Z,15.80
2018-03-23T17:18:38.586Z,14.85
2018-03-23T17:21:06.105Z,15.85
2018-03-23T17:23:34.368Z,15.35
2018-03-23T17:26:03.850Z,15.07
2018-03-23T17:28:32.192Z,17.02
2018-03-23T17:31:02.747Z,15.27
2018-03-23T17:33:30.257Z,14.15
2018-03-23T17:35:57.814Z,13.65
2018-03-23T17:38:25.334Z,14.45
2018-03-23T17:41:11.417Z,14.32
2018-03-23T17:43:39.031Z,15.13
2018-03-23T17:46:06.713Z,13.40
2018-03-23T17:48:34.961Z,13.93
2018-03-23T17:51:02.466Z,14.00
2018-03-23T17:53:41.102Z,15.40
2018-03-23T17:56:08.595Z,16.65
2018-03-23T17:58:36.412Z,14.13
2018-03-23T18:01:26.691Z,16.33
2018-03-23T18:04:10.702Z,14.97
2018-03-23T18:07:09.562Z,14.87
2018-03-23T18:09:39.867Z,17.67
2018-03-23T18:12:42.387Z,16.20
2018-03-23T18:15:10.840Z,16.08
2018-03-23T18:17:42.227Z,15.38
2018-03-23T18:33:52.949Z,18.40
2018-03-23T18:36:21.193Z,19.50
2018-03-23T18:38:59.630Z,18.27
2018-03-23T18:41:27.213Z,19.27
2018-03-23T18:43:54.726Z,17.67
2018-03-23T18:46:23.616Z,16.77
2018-03-23T18:48:51.164Z,19.30
2018-03-23T18:51:18.669Z,18.37
2018-03-23T18:54:08.158Z,16.67
2018-03-23T18:56:35.712Z,15.63
2018-03-23T18:59:04.113Z,15.27
2018-03-23T19:01:31.648Z,16.87
2018-03-23T19:03:59.160Z,18.50
2018-03-23T19:06:52.320Z,16.25
2018-03-23T19:09:20.588Z,16.40
2018-03-23T19:11:48.096Z,14.52
2018-03-23T19:14:15.769Z,16.10
2018-03-23T19:16:46.789Z,17.20
2018-03-23T19:19:15.039Z,15.50
2018-03-23T19:21:43.900Z,16.12
2018-03-23T19:24:12.197Z,15.38
2018-03-23T19:27:04.287Z,14.03
2018-03-23T19:29:31.842Z,14.63
2018-03-23T19:32:02.960Z,14.48
2018-03-23T19:34:37.349Z,15.00
2018-03-23T19:37:08.511Z,20.15
2018-03-23T19:39:36.949Z,16.33
2018-03-23T19:42:08.978Z,16.83
2018-03-23T19:44:38.375Z,19.15
2018-03-23T19:47:07.127Z,16.70
2018-03-23T19:49:37.486Z,14.18
2018-03-23T19:52:08.671Z,12.88
2018-03-23T19:54:38.352Z,13.40
2018-03-23T19:57:09.007Z,14.05
2018-03-23T19:59:41.643Z,15.38
2018-03-23T20:02:09.273Z,13.93
2018-03-23T20:04:37.748Z,13.52
2018-03-23T20:07:08.910Z,13.95
2018-03-23T20:09:38.291Z,13.97
2018-03-23T20:12:08.938Z,13.60
2018-03-23T20:14:37.345Z,14.43
2018-03-23T20:17:10.001Z,14.20
2018-03-23T20:19:40.007Z,12.43
2018-03-23T20:25:10.894Z,15.13
2018-03-23T20:30:36.339Z,18.50
2018-03-23T20:33:03.897Z,14.13
2018-03-23T20:35:31.390Z,18.67
2018-03-23T21:12:08.226Z,21.70
2018-03-23T21:17:29.186Z,25.47
2018-03-23T21:25:52.778Z,23.08
2018-03-23T21:28:20.359Z,23.27
2018-03-23T21:33:40.121Z,25.75
2018-03-23T21:36:09.641Z,25.12
2018-03-23T21:41:44.634Z,26.05
2018-03-23T21:47:07.624Z,26.13
2018-03-23T21:49:38.918Z,24.73
2018-03-23T21:55:22.490Z,27.80
2018-03-23T21:57:50.040Z,26.62
2018-03-23T22:00:27.749Z,24.70
2018-03-23T22:02:58.788Z,27.00
2018-03-23T22:05:26.343Z,27.40
2018-03-23T22:07:54.599Z,22.20
2018-03-23T22:10:22.094Z,24.50
2018-03-23T22:12:50.360Z,22.35
2018-03-23T22:15:38.172Z,25.70
2018-03-23T22:18:06.783Z,24.80
2018-03-23T22:20:41.798Z,23.07
2018-03-23T22:23:09.318Z,21.85
2018-03-23T22:28:37.082Z,19.62
2018-03-23T22:31:04.666Z,22.00
2018-03-23T22:33:32.184Z,20.52
2018-03-23T22:36:00.931Z,20.48
2018-03-23T22:38:36.465Z,19.35
2018-03-23T22:41:06.006Z,21.67
2018-03-23T22:43:33.643Z,23.80
2018-03-23T22:49:12.065Z,28.20
2018-03-23T22:51:39.566Z,21.48
2018-03-23T22:54:07.472Z,23.33
2018-03-23T22:56:37.585Z,22.35
2018-03-23T23:00:29.522Z,21.92
2018-03-23T23:03:07.873Z,22.73
2018-03-23T23:11:34.952Z,22.13
2018-03-23T23:14:06.498Z,23.37
2018-03-23T23:16:36.294Z,21.80
2018-03-23T23:21:51.382Z,22.87
2018-03-23T23:24:23.223Z,22.33
2018-03-23T23:27:05.415Z,21.33
2018-03-23T23:29:33.026Z,19.85
2018-03-23T23:32:02.936Z,22.42
2018-03-23T23:34:34.392Z,21.67
2018-03-23T23:37:03.447Z,20.95
2018-03-23T23:39:35.307Z,19.20
2018-03-23T23:42:10.949Z,22.62
2018-03-23T23:44:41.679Z,21.23
2018-03-23T23:47:13.268Z,21.03
2018-03-23T23:52:33.453Z,22.80
2018-03-23T23:55:00.953Z,22.40
2018-03-23T23:57:33.962Z,23.27
